sensor_id;sensor_type;location;lat;lon;timestamp;temperature;humidity
8595;DHT22;4335;48.860;9.198;2023-10-19T00:01:23;11.20;99.90
8595;DHT22;4335;48.860;9.198;2023-10-19T00:03:57;11.10;99.90
8595;DHT22;4335;48.860;9.198;2023-10-19T00:06:31;11.10;99.90
8595;DHT22;4335;48.860;9.198;2023-10-19T00:09:01;11.10;99.90
8595;DHT22;4335;48.860;9.198;2023-10-19T00:11:32;11.10;99.90
8595;DHT22;4335;48.860;9.198;2023-10-19T00:14:05;11.10;99.90
8595;DHT22;4335;48.860;9.198;2023-10-19T00:16:40;11.10;99.90
8595;DHT22;4335;48.860;9.198;2023-10-19T00:19:10;11.20;99.90
8595;DHT22;4335;48.860;9.198;2023-10-19T00:21:37;11.10;99.90
8595;DHT22;4335;48.860;9.198;2023-10-19T00:24:17;11.10;99.90
8595;DHT22;4335;48.860;9.198;2023-10-19T00:26:45;11.20;99.90
8595;DHT22;4335;48.860;9.198;2023-10-19T00:29:13;11.20;99.90
8595;DHT22;4335;48.860;9.198;2023-10-19T00:31:56;11.20;99.90
8595;DHT22;4335;48.860;9.198;2023-10-19T00:34:25;11.20;99.90
8595;DHT22;4335;48.860;9.198;2023-10-19T00:36:55;11.20;99.90
8595;DHT22;4335;48.860;9.198;2023-10-19T00:39:28;11.20;99.90
8595;DHT22;4335;48.860;9.198;2023-10-19T00:42:06;11.20;99.90
8595;DHT22;4335;48.860;9.198;2023-10-19T00:44:33;11.20;99.90
8595;DHT22;4335;48.860;9.198;2023-10-19T00:47:10;11.20;99.90
8595;DHT22;4335;48.860;9.198;2023-10-19T00:49:40;11.20;99.90
8595;DHT22;4335;48.860;9.198;2023-10-19T00:52:10;11.20;99.90
8595;DHT22;4335;48.860;9.198;2023-10-19T00:54:52;11.20;99.90
8595;DHT22;4335;48.860;9.198;2023-10-19T00:57:27;11.20;99.90
8595;DHT22;4335;48.860;9.198;2023-10-19T01:00:02;11.20;99.90
8595;DHT22;4335;48.860;9.198;2023-10-19T01:02:43;11.30;99.90
8595;DHT22;4335;48.860;9.198;2023-10-19T01:05:20;11.30;99.90
8595;DHT22;4335;48.860;9.198;2023-10-19T01:07:48;11.30;99.90
8595;DHT22;4335;48.860;9.198;2023-10-19T01:10:27;11.40;99.90
8595;DHT22;4335;48.860;9.198;2023-10-19T01:12:58;11.30;99.90
8595;DHT22;4335;48.860;9.198;2023-10-19T01:15:26;11.30;99.90
8595;DHT22;4335;48.860;9.198;2023-10-19T01:17:58;11.30;99.90
8595;DHT22;4335;48.860;9.198;2023-10-19T01:20:28;11.20;99.90
8595;DHT22;4335;48.860;9.198;2023-10-19T01:23:20;11.20;99.90
8595;DHT22;4335;48.860;9.198;2023-10-19T01:25:54;11.20;99.90
8595;DHT22;4335;48.860;9.198;2023-10-19T01:28:34;11.20;99.90
8595;DHT22;4335;48.860;9.198;2023-10-19T01:31:14;11.20;99.90
8595;DHT22;4335;48.860;9.198;2023-10-19T01:33:45;11.20;99.90
8595;DHT22;4335;48.860;9.198;2023-10-19T01:36:13;11.20;99.90
8595;DHT22;4335;48.860;9.198;2023-10-19T01:39:00;11.20;99.90
8595;DHT22;4335;48.860;9.198;2023-10-19T01:41:27;11.20;99.90
8595;DHT22;4335;48.860;9.198;2023-10-19T01:43:56;11.30;99.90
8595;DHT22;4335;48.860;9.198;2023-10-19T01:46:34;11.30;99.90
8595;DHT22;4335;48.860;9.198;2023-10-19T01:49:08;11.30;99.90
8595;DHT22;4335;48.860;9.198;2023-10-19T01:51:35;11.30;99.90
8595;DHT22;4335;48.860;9.198;2023-10-19T01:54:11;11.30;99.90
8595;DHT22;4335;48.860;9.198;2023-10-19T01:56:43;11.30;99.90
8595;DHT22;4335;48.860;9.198;2023-10-19T01:59:11;11.30;99.90
8595;DHT22;4335;48.860;9.198;2023-10-19T02:01:42;11.30;99.90
8595;DHT22;4335;48.860;9.198;2023-10-19T02:04:11;11.30;99.90
8595;DHT22;4335;48.860;9.198;2023-10-19T02:06:45;11.40;99.90
8595;DHT22;4335;48.860;9.198;2023-10-19T02:09:15;11.40;99.90
8595;DHT22;4335;48.860;9.198;2023-10-19T02:11:48;11.40;99.90
8595;DHT22;4335;48.860;9.198;2023-10-19T02:14:24;11.40;99.90
8595;DHT22;4335;48.860;9.198;2023-10-19T02:16:53;11.40;99.90
8595;DHT22;4335;48.860;9.198;2023-10-19T02:19:23;11.50;99.90
8595;DHT22;4335;48.860;9.198;2023-10-19T02:21:56;11.60;99.90
8595;DHT22;4335;48.860;9.198;2023-10-19T02:24:24;11.60;99.90
8595;DHT22;4335;48.860;9.198;2023-10-19T02:26:54;11.60;99.90
8595;DHT22;4335;48.860;9.198;2023-10-19T02:29:21;11.60;99.90
8595;DHT22;4335;48.860;9.198;2023-10-19T02:31:52;11.60;99.90
8595;DHT22;4335;48.860;9.198;2023-10-19T02:34:22;11.60;99.90
8595;DHT22;4335;48.860;9.198;2023-10-19T02:36:49;11.70;99.90
8595;DHT22;4335;48.860;9.198;2023-10-19T02:39:18;11.70;99.90
8595;DHT22;4335;48.860;9.198;2023-10-19T02:41:48;11.70;99.90
8595;DHT22;4335;48.860;9.198;2023-10-19T02:44:16;11.70;99.90
8595;DHT22;4335;48.860;9.198;2023-10-19T02:46:49;11.70;99.90
8595;DHT22;4335;48.860;9.198;2023-10-19T02:49:17;11.70;99.90
8595;DHT22;4335;48.860;9.198;2023-10-19T02:51:46;11.70;99.90
8595;DHT22;4335;48.860;9.198;2023-10-19T02:54:17;11.70;99.90
8595;DHT22;4335;48.860;9.198;2023-10-19T02:56:47;11.70;99.90
8595;DHT22;4335;48.860;9.198;2023-10-19T02:59:17;11.70;99.90
8595;DHT22;4335;48.860;9.198;2023-10-19T03:01:48;11.70;99.90
8595;DHT22;4335;48.860;9.198;2023-10-19T03:04:17;11.70;99.90
8595;DHT22;4335;48.860;9.198;2023-10-19T03:06:47;11.70;99.90
8595;DHT22;4335;48.860;9.198;2023-10-19T03:09:13;11.70;99.90
8595;DHT22;4335;48.860;9.198;2023-10-19T03:11:50;11.70;99.90
8595;DHT22;4335;48.860;9.198;2023-10-19T03:14:21;11.70;99.90
8595;DHT22;4335;48.860;9.198;2023-10-19T03:16:51;11.60;99.90
8595;DHT22;4335;48.860;9.198;2023-10-19T03:19:20;11.60;99.90
8595;DHT22;4335;48.860;9.198;2023-10-19T03:21:48;11.60;99.90
8595;DHT22;4335;48.860;9.198;2023-10-19T03:24:18;11.60;99.90
8595;DHT22;4335;48.860;9.198;2023-10-19T03:27:09;11.60;99.90
8595;DHT22;4335;48.860;9.198;2023-10-19T03:29:48;11.50;99.90
8595;DHT22;4335;48.860;9.198;2023-10-19T03:32:23;11.50;99.90
8595;DHT22;4335;48.860;9.198;2023-10-19T03:34:52;11.40;99.90
8595;DHT22;4335;48.860;9.198;2023-10-19T03:37:21;11.40;99.90
8595;DHT22;4335;48.860;9.198;2023-10-19T03:39:50;11.40;99.90
8595;DHT22;4335;48.860;9.198;2023-10-19T03:42:19;11.40;99.90
8595;DHT22;4335;48.860;9.198;2023-10-19T03:44:51;11.40;99.90
8595;DHT22;4335;48.860;9.198;2023-10-19T03:47:19;11.50;99.90
8595;DHT22;4335;48.860;9.198;2023-10-19T03:49:51;11.50;99.90
8595;DHT22;4335;48.860;9.198;2023-10-19T03:52:18;11.50;99.90
8595;DHT22;4335;48.860;9.198;2023-10-19T03:54:55;11.40;99.90
8595;DHT22;4335;48.860;9.198;2023-10-19T03:57:31;11.40;99.90
8595;DHT22;4335;48.860;9.198;2023-10-19T04:00:07;11.40;99.90
8595;DHT22;4335;48.860;9.198;2023-10-19T04:02:44;11.40;99.90
8595;DHT22;4335;48.860;9.198;2023-10-19T04:05:12;11.40;99.90
8595;DHT22;4335;48.860;9.198;2023-10-19T04:07:52;11.40;99.90
8595;DHT22;4335;48.860;9.198;2023-10-19T04:10:21;11.30;99.90
8595;DHT22;4335;48.860;9.198;2023-10-19T04:13:11;11.30;99.90
8595;DHT22;4335;48.860;9.198;2023-10-19T04:15:45;11.30;99.90
8595;DHT22;4335;48.860;9.198;2023-10-19T04:18:18;11.30;99.90
8595;DHT22;4335;48.860;9.198;2023-10-19T04:20:45;11.30;99.90
8595;DHT22;4335;48.860;9.198;2023-10-19T04:23:29;11.30;99.90
8595;DHT22;4335;48.860;9.198;2023-10-19T04:26:03;11.30;99.90
8595;DHT22;4335;48.860;9.198;2023-10-19T04:28:41;11.30;99.90
8595;DHT22;4335;48.860;9.198;2023-10-19T04:31:21;11.40;99.90
8595;DHT22;4335;48.860;9.198;2023-10-19T04:33:52;11.40;99.90
8595;DHT22;4335;48.860;9.198;2023-10-19T04:36:23;11.40;99.90
8595;DHT22;4335;48.860;9.198;2023-10-19T04:38:51;11.40;99.90
8595;DHT22;4335;48.860;9.198;2023-10-19T04:41:20;11.40;99.90
8595;DHT22;4335;48.860;9.198;2023-10-19T04:43:49;11.40;99.90
8595;DHT22;4335;48.860;9.198;2023-10-19T04:46:17;11.40;99.90
8595;DHT22;4335;48.860;9.198;2023-10-19T04:48:51;11.50;99.90
8595;DHT22;4335;48.860;9.198;2023-10-19T04:51:21;11.50;99.90
8595;DHT22;4335;48.860;9.198;2023-10-19T04:53:48;11.50;99.90
8595;DHT22;4335;48.860;9.198;2023-10-19T04:56:16;11.50;99.90
8595;DHT22;4335;48.860;9.198;2023-10-19T04:58:43;11.50;99.90
8595;DHT22;4335;48.860;9.198;2023-10-19T05:01:15;11.50;99.90
8595;DHT22;4335;48.860;9.198;2023-10-19T05:03:42;11.50;99.90
8595;DHT22;4335;48.860;9.198;2023-10-19T05:06:13;11.50;99.90
8595;DHT22;4335;48.860;9.198;2023-10-19T05:08:40;11.50;99.90
8595;DHT22;4335;48.860;9.198;2023-10-19T05:11:08;11.50;99.90
8595;DHT22;4335;48.860;9.198;2023-10-19T05:13:35;11.50;99.90
8595;DHT22;4335;48.860;9.198;2023-10-19T05:16:06;11.50;99.90
8595;DHT22;4335;48.860;9.198;2023-10-19T05:18:35;11.50;99.90
8595;DHT22;4335;48.860;9.198;2023-10-19T05:21:05;11.50;99.90
8595;DHT22;4335;48.860;9.198;2023-10-19T05:23:37;11.50;99.90
8595;DHT22;4335;48.860;9.198;2023-10-19T05:26:05;11.50;99.90
8595;DHT22;4335;48.860;9.198;2023-10-19T05:28:33;11.50;99.90
8595;DHT22;4335;48.860;9.198;2023-10-19T05:31:00;11.50;99.90
8595;DHT22;4335;48.860;9.198;2023-10-19T05:33:30;11.50;99.90
8595;DHT22;4335;48.860;9.198;2023-10-19T05:36:00;11.40;99.90
8595;DHT22;4335;48.860;9.198;2023-10-19T05:38:31;11.40;99.90
8595;DHT22;4335;48.860;9.198;2023-10-19T05:40:59;11.40;99.90
8595;DHT22;4335;48.860;9.198;2023-10-19T05:43:29;11.40;99.90
8595;DHT22;4335;48.860;9.198;2023-10-19T05:45:56;11.40;99.90
8595;DHT22;4335;48.860;9.198;2023-10-19T05:48:24;11.40;99.90
8595;DHT22;4335;48.860;9.198;2023-10-19T05:50:54;11.40;99.90
8595;DHT22;4335;48.860;9.198;2023-10-19T05:53:23;11.50;99.90
8595;DHT22;4335;48.860;9.198;2023-10-19T05:55:56;11.50;99.90
8595;DHT22;4335;48.860;9.198;2023-10-19T05:58:27;11.50;99.90
8595;DHT22;4335;48.860;9.198;2023-10-19T06:00:58;11.50;99.90
8595;DHT22;4335;48.860;9.198;2023-10-19T06:03:29;11.60;99.90
8595;DHT22;4335;48.860;9.198;2023-10-19T06:05:56;11.60;99.90
8595;DHT22;4335;48.860;9.198;2023-10-19T06:08:32;11.60;99.90
8595;DHT22;4335;48.860;9.198;2023-10-19T06:11:03;11.70;99.90
8595;DHT22;4335;48.860;9.198;2023-10-19T06:13:31;11.70;99.90
8595;DHT22;4335;48.860;9.198;2023-10-19T06:16:05;11.70;99.90
8595;DHT22;4335;48.860;9.198;2023-10-19T06:18:32;11.80;99.90
8595;DHT22;4335;48.860;9.198;2023-10-19T06:21:00;11.80;99.90
8595;DHT22;4335;48.860;9.198;2023-10-19T06:23:31;11.80;99.90
8595;DHT22;4335;48.860;9.198;2023-10-19T06:26:08;11.80;99.90
8595;DHT22;4335;48.860;9.198;2023-10-19T06:28:39;11.90;99.90
8595;DHT22;4335;48.860;9.198;2023-10-19T06:31:07;11.90;99.90
8595;DHT22;4335;48.860;9.198;2023-10-19T06:33:37;11.90;99.90
8595;DHT22;4335;48.860;9.198;2023-10-19T06:36:07;12.00;99.90
8595;DHT22;4335;48.860;9.198;2023-10-19T06:38:36;12.00;99.90
8595;DHT22;4335;48.860;9.198;2023-10-19T06:41:13;12.10;99.90
8595;DHT22;4335;48.860;9.198;2023-10-19T06:43:41;12.10;99.90
8595;DHT22;4335;48.860;9.198;2023-10-19T06:46:11;12.10;99.90
8595;DHT22;4335;48.860;9.198;2023-10-19T06:48:40;12.20;99.90
8595;DHT22;4335;48.860;9.198;2023-10-19T06:51:08;12.20;99.90
8595;DHT22;4335;48.860;9.198;2023-10-19T06:53:39;12.30;99.90
8595;DHT22;4335;48.860;9.198;2023-10-19T06:56:07;12.30;99.90
8595;DHT22;4335;48.860;9.198;2023-10-19T06:58:37;12.40;99.90
8595;DHT22;4335;48.860;9.198;2023-10-19T07:01:11;12.40;99.90
8595;DHT22;4335;48.860;9.198;2023-10-19T07:03:51;12.50;99.90
8595;DHT22;4335;48.860;9.198;2023-10-19T07:06:22;12.50;99.90
8595;DHT22;4335;48.860;9.198;2023-10-19T07:08:51;12.60;99.90
8595;DHT22;4335;48.860;9.198;2023-10-19T07:11:21;12.70;99.90
8595;DHT22;4335;48.860;9.198;2023-10-19T07:13:55;12.70;99.90
8595;DHT22;4335;48.860;9.198;2023-10-19T07:16:26;12.80;99.90
8595;DHT22;4335;48.860;9.198;2023-10-19T07:18:56;12.80;99.90
8595;DHT22;4335;48.860;9.198;2023-10-19T07:21:27;12.90;99.90
8595;DHT22;4335;48.860;9.198;2023-10-19T07:23:59;12.90;99.90
8595;DHT22;4335;48.860;9.198;2023-10-19T07:26:30;12.90;99.90
8595;DHT22;4335;48.860;9.198;2023-10-19T07:29:02;12.90;99.90
8595;DHT22;4335;48.860;9.198;2023-10-19T07:31:34;12.80;99.90
8595;DHT22;4335;48.860;9.198;2023-10-19T07:34:01;12.90;99.90
8595;DHT22;4335;48.860;9.198;2023-10-19T07:36:32;12.90;99.90
8595;DHT22;4335;48.860;9.198;2023-10-19T07:39:04;12.90;99.90
8595;DHT22;4335;48.860;9.198;2023-10-19T07:41:46;13.00;99.90
8595;DHT22;4335;48.860;9.198;2023-10-19T07:44:16;13.00;99.90
8595;DHT22;4335;48.860;9.198;2023-10-19T07:46:43;13.10;99.90
8595;DHT22;4335;48.860;9.198;2023-10-19T07:49:11;13.20;99.90
8595;DHT22;4335;48.860;9.198;2023-10-19T07:51:55;13.20;99.90
8595;DHT22;4335;48.860;9.198;2023-10-19T07:54:27;13.30;99.90
8595;DHT22;4335;48.860;9.198;2023-10-19T07:56:56;13.40;99.90
8595;DHT22;4335;48.860;9.198;2023-10-19T07:59:23;13.50;99.90
8595;DHT22;4335;48.860;9.198;2023-10-19T08:01:54;13.50;99.90
8595;DHT22;4335;48.860;9.198;2023-10-19T08:04:28;13.60;99.90
8595;DHT22;4335;48.860;9.198;2023-10-19T08:06:58;13.70;99.90
8595;DHT22;4335;48.860;9.198;2023-10-19T08:09:32;13.90;99.90
8595;DHT22;4335;48.860;9.198;2023-10-19T08:12:04;14.00;99.90
8595;DHT22;4335;48.860;9.198;2023-10-19T08:14:31;14.20;99.90
8595;DHT22;4335;48.860;9.198;2023-10-19T08:16:59;14.30;99.90
8595;DHT22;4335;48.860;9.198;2023-10-19T08:19:29;14.40;99.90
8595;DHT22;4335;48.860;9.198;2023-10-19T08:21:57;14.60;99.90
8595;DHT22;4335;48.860;9.198;2023-10-19T08:24:25;14.70;99.90
8595;DHT22;4335;48.860;9.198;2023-10-19T08:27:00;14.70;99.90
8595;DHT22;4335;48.860;9.198;2023-10-19T08:29:33;14.80;99.90
8595;DHT22;4335;48.860;9.198;2023-10-19T08:32:10;14.80;99.90
8595;DHT22;4335;48.860;9.198;2023-10-19T08:34:37;14.90;99.90
8595;DHT22;4335;48.860;9.198;2023-10-19T08:37:05;14.90;99.90
8595;DHT22;4335;48.860;9.198;2023-10-19T08:39:39;15.00;99.90
8595;DHT22;4335;48.860;9.198;2023-10-19T08:42:10;15.00;99.90
8595;DHT22;4335;48.860;9.198;2023-10-19T08:44:44;15.10;99.90
8595;DHT22;4335;48.860;9.198;2023-10-19T08:47:11;15.20;99.90
8595;DHT22;4335;48.860;9.198;2023-10-19T08:49:39;15.30;99.90
8595;DHT22;4335;48.860;9.198;2023-10-19T08:52:07;15.40;99.90
8595;DHT22;4335;48.860;9.198;2023-10-19T08:54:38;15.60;99.90
8595;DHT22;4335;48.860;9.198;2023-10-19T08:57:06;15.70;99.90
8595;DHT22;4335;48.860;9.198;2023-10-19T08:59:34;15.80;99.90
8595;DHT22;4335;48.860;9.198;2023-10-19T09:02:04;15.80;99.90
8595;DHT22;4335;48.860;9.198;2023-10-19T09:04:41;15.90;99.90
8595;DHT22;4335;48.860;9.198;2023-10-19T09:07:13;15.80;99.90
8595;DHT22;4335;48.860;9.198;2023-10-19T09:09:44;15.80;99.90
8595;DHT22;4335;48.860;9.198;2023-10-19T09:12:13;15.80;99.90
8595;DHT22;4335;48.860;9.198;2023-10-19T09:14:47;15.90;99.90
8595;DHT22;4335;48.860;9.198;2023-10-19T09:17:15;16.00;99.90
8595;DHT22;4335;48.860;9.198;2023-10-19T09:19:45;16.00;99.90
8595;DHT22;4335;48.860;9.198;2023-10-19T09:22:13;16.20;99.90
8595;DHT22;4335;48.860;9.198;2023-10-19T09:24:44;16.30;99.90
8595;DHT22;4335;48.860;9.198;2023-10-19T09:27:12;16.40;99.90
8595;DHT22;4335;48.860;9.198;2023-10-19T09:29:40;16.60;99.90
8595;DHT22;4335;48.860;9.198;2023-10-19T09:32:09;16.70;99.90
8595;DHT22;4335;48.860;9.198;2023-10-19T09:34:45;16.90;99.90
8595;DHT22;4335;48.860;9.198;2023-10-19T09:37:14;17.00;99.90
8595;DHT22;4335;48.860;9.198;2023-10-19T09:39:43;17.10;99.90
8595;DHT22;4335;48.860;9.198;2023-10-19T09:42:11;17.20;99.90
8595;DHT22;4335;48.860;9.198;2023-10-19T09:44:55;17.20;99.90
8595;DHT22;4335;48.860;9.198;2023-10-19T09:47:35;17.30;99.90
8595;DHT22;4335;48.860;9.198;2023-10-19T09:50:07;17.50;99.90
8595;DHT22;4335;48.860;9.198;2023-10-19T09:52:39;17.70;99.90
8595;DHT22;4335;48.860;9.198;2023-10-19T09:55:12;17.80;99.90
8595;DHT22;4335;48.860;9.198;2023-10-19T09:57:48;18.30;99.90
8595;DHT22;4335;48.860;9.198;2023-10-19T10:00:21;19.00;99.90
8595;DHT22;4335;48.860;9.198;2023-10-19T10:02:58;19.60;99.90
8595;DHT22;4335;48.860;9.198;2023-10-19T10:05:49;19.90;99.90
8595;DHT22;4335;48.860;9.198;2023-10-19T10:08:30;20.20;99.90
8595;DHT22;4335;48.860;9.198;2023-10-19T10:11:22;20.30;99.90
8595;DHT22;4335;48.860;9.198;2023-10-19T10:13:53;20.00;99.90
8595;DHT22;4335;48.860;9.198;2023-10-19T10:16:22;19.70;99.90
8595;DHT22;4335;48.860;9.198;2023-10-19T10:18:56;19.40;99.90
8595;DHT22;4335;48.860;9.198;2023-10-19T10:21:29;19.20;99.90
8595;DHT22;4335;48.860;9.198;2023-10-19T10:24:02;19.00;99.90
8595;DHT22;4335;48.860;9.198;2023-10-19T10:26:59;18.80;99.90
8595;DHT22;4335;48.860;9.198;2023-10-19T10:29:28;18.60;99.90
8595;DHT22;4335;48.860;9.198;2023-10-19T10:32:02;18.50;99.90
8595;DHT22;4335;48.860;9.198;2023-10-19T10:34:45;18.40;99.90
8595;DHT22;4335;48.860;9.198;2023-10-19T10:37:15;18.40;99.90
8595;DHT22;4335;48.860;9.198;2023-10-19T10:39:42;18.30;99.90
8595;DHT22;4335;48.860;9.198;2023-10-19T10:42:10;18.30;99.90
8595;DHT22;4335;48.860;9.198;2023-10-19T10:44:39;18.30;99.90
8595;DHT22;4335;48.860;9.198;2023-10-19T10:47:08;18.30;99.90
8595;DHT22;4335;48.860;9.198;2023-10-19T10:49:50;18.30;99.90
8595;DHT22;4335;48.860;9.198;2023-10-19T10:52:26;18.30;99.90
8595;DHT22;4335;48.860;9.198;2023-10-19T10:54:55;18.30;99.90
8595;DHT22;4335;48.860;9.198;2023-10-19T10:57:22;18.30;99.90
8595;DHT22;4335;48.860;9.198;2023-10-19T11:00:01;18.20;99.90
8595;DHT22;4335;48.860;9.198;2023-10-19T11:02:34;18.30;99.90
8595;DHT22;4335;48.860;9.198;2023-10-19T11:05:05;18.20;99.90
8595;DHT22;4335;48.860;9.198;2023-10-19T11:07:37;18.20;99.90
8595;DHT22;4335;48.860;9.198;2023-10-19T11:10:05;18.10;99.90
8595;DHT22;4335;48.860;9.198;2023-10-19T11:12:36;18.10;99.90
8595;DHT22;4335;48.860;9.198;2023-10-19T11:15:08;18.10;99.90
8595;DHT22;4335;48.860;9.198;2023-10-19T11:17:43;18.00;99.90
8595;DHT22;4335;48.860;9.198;2023-10-19T11:20:21;17.90;99.90
8595;DHT22;4335;48.860;9.198;2023-10-19T11:22:49;17.80;99.90
8595;DHT22;4335;48.860;9.198;2023-10-19T11:25:34;17.70;99.90
8595;DHT22;4335;48.860;9.198;2023-10-19T11:28:17;17.60;99.90
8595;DHT22;4335;48.860;9.198;2023-10-19T11:30:44;17.50;99.90
8595;DHT22;4335;48.860;9.198;2023-10-19T11:33:17;17.50;99.90
8595;DHT22;4335;48.860;9.198;2023-10-19T11:35:54;17.40;99.90
8595;DHT22;4335;48.860;9.198;2023-10-19T11:38:33;17.20;99.90
8595;DHT22;4335;48.860;9.198;2023-10-19T11:41:04;17.10;99.90
8595;DHT22;4335;48.860;9.198;2023-10-19T11:43:31;17.00;99.90
8595;DHT22;4335;48.860;9.198;2023-10-19T11:46:00;16.90;99.90
8595;DHT22;4335;48.860;9.198;2023-10-19T11:48:28;16.90;99.90
8595;DHT22;4335;48.860;9.198;2023-10-19T11:50:58;16.80;99.90
8595;DHT22;4335;48.860;9.198;2023-10-19T11:53:26;16.80;99.90
8595;DHT22;4335;48.860;9.198;2023-10-19T11:55:59;16.70;99.90
8595;DHT22;4335;48.860;9.198;2023-10-19T11:58:30;16.70;99.90
8595;DHT22;4335;48.860;9.198;2023-10-19T12:01:06;16.70;99.90
8595;DHT22;4335;48.860;9.198;2023-10-19T12:03:34;16.60;99.90
8595;DHT22;4335;48.860;9.198;2023-10-19T12:06:07;16.60;99.90
8595;DHT22;4335;48.860;9.198;2023-10-19T12:08:51;16.60;99.90
8595;DHT22;4335;48.860;9.198;2023-10-19T12:11:21;16.60;99.90
8595;DHT22;4335;48.860;9.198;2023-10-19T12:13:53;16.60;99.90
8595;DHT22;4335;48.860;9.198;2023-10-19T12:16:20;16.50;99.90
8595;DHT22;4335;48.860;9.198;2023-10-19T12:18:49;16.50;99.90
8595;DHT22;4335;48.860;9.198;2023-10-19T12:21:18;16.50;99.90
8595;DHT22;4335;48.860;9.198;2023-10-19T12:23:56;16.50;99.90
8595;DHT22;4335;48.860;9.198;2023-10-19T12:26:25;16.50;99.90
8595;DHT22;4335;48.860;9.198;2023-10-19T12:28:52;16.40;99.90
8595;DHT22;4335;48.860;9.198;2023-10-19T12:31:23;16.40;99.90
8595;DHT22;4335;48.860;9.198;2023-10-19T12:33:53;16.30;99.90
8595;DHT22;4335;48.860;9.198;2023-10-19T12:36:25;16.20;99.90
8595;DHT22;4335;48.860;9.198;2023-10-19T12:38:58;16.20;99.90
8595;DHT22;4335;48.860;9.198;2023-10-19T12:41:26;16.10;99.90
8595;DHT22;4335;48.860;9.198;2023-10-19T12:43:54;16.10;99.90
8595;DHT22;4335;48.860;9.198;2023-10-19T12:46:24;16.10;99.90
8595;DHT22;4335;48.860;9.198;2023-10-19T12:48:53;16.10;99.90
8595;DHT22;4335;48.860;9.198;2023-10-19T12:51:21;16.10;99.90
8595;DHT22;4335;48.860;9.198;2023-10-19T12:53:54;16.10;99.90
8595;DHT22;4335;48.860;9.198;2023-10-19T12:56:22;16.10;99.90
8595;DHT22;4335;48.860;9.198;2023-10-19T12:58:55;16.10;99.90
8595;DHT22;4335;48.860;9.198;2023-10-19T13:01:23;16.10;99.90
8595;DHT22;4335;48.860;9.198;2023-10-19T13:03:50;16.00;99.90
8595;DHT22;4335;48.860;9.198;2023-10-19T13:06:24;16.00;99.90
8595;DHT22;4335;48.860;9.198;2023-10-19T13:08:59;15.90;99.90
8595;DHT22;4335;48.860;9.198;2023-10-19T13:11:26;15.90;99.90
8595;DHT22;4335;48.860;9.198;2023-10-19T13:13:58;15.90;99.90
8595;DHT22;4335;48.860;9.198;2023-10-19T13:16:29;15.80;99.90
8595;DHT22;4335;48.860;9.198;2023-10-19T13:18:56;15.80;99.90
8595;DHT22;4335;48.860;9.198;2023-10-19T13:21:24;15.80;99.90
8595;DHT22;4335;48.860;9.198;2023-10-19T13:23:54;15.80;99.90
8595;DHT22;4335;48.860;9.198;2023-10-19T13:26:23;15.80;99.90
8595;DHT22;4335;48.860;9.198;2023-10-19T13:28:52;15.80;99.90
8595;DHT22;4335;48.860;9.198;2023-10-19T13:31:21;15.80;99.90
8595;DHT22;4335;48.860;9.198;2023-10-19T13:33:49;15.80;99.90
8595;DHT22;4335;48.860;9.198;2023-10-19T13:36:16;15.90;99.90
8595;DHT22;4335;48.860;9.198;2023-10-19T13:38:45;15.90;99.90
8595;DHT22;4335;48.860;9.198;2023-10-19T13:41:15;15.90;99.90
8595;DHT22;4335;48.860;9.198;2023-10-19T13:43:44;16.00;99.90
8595;DHT22;4335;48.860;9.198;2023-10-19T13:46:16;16.00;99.90
8595;DHT22;4335;48.860;9.198;2023-10-19T13:48:43;16.10;99.90
8595;DHT22;4335;48.860;9.198;2023-10-19T13:51:16;16.10;99.90
8595;DHT22;4335;48.860;9.198;2023-10-19T13:53:45;16.10;99.90
8595;DHT22;4335;48.860;9.198;2023-10-19T13:56:13;16.10;99.90
8595;DHT22;4335;48.860;9.198;2023-10-19T13:58:40;16.10;99.90
8595;DHT22;4335;48.860;9.198;2023-10-19T14:01:24;16.00;99.90
8595;DHT22;4335;48.860;9.198;2023-10-19T14:03:57;16.00;99.90
8595;DHT22;4335;48.860;9.198;2023-10-19T14:06:25;15.90;99.90
8595;DHT22;4335;48.860;9.198;2023-10-19T14:08:53;15.90;99.90
8595;DHT22;4335;48.860;9.198;2023-10-19T14:11:21;15.90;99.90
8595;DHT22;4335;48.860;9.198;2023-10-19T14:13:52;15.80;99.90
8595;DHT22;4335;48.860;9.198;2023-10-19T14:16:20;15.80;99.90
8595;DHT22;4335;48.860;9.198;2023-10-19T14:18:50;15.80;99.90
8595;DHT22;4335;48.860;9.198;2023-10-19T14:21:18;15.80;99.90
8595;DHT22;4335;48.860;9.198;2023-10-19T14:23:46;15.80;99.90
8595;DHT22;4335;48.860;9.198;2023-10-19T14:26:14;15.80;99.90
8595;DHT22;4335;48.860;9.198;2023-10-19T14:28:48;15.80;99.90
8595;DHT22;4335;48.860;9.198;2023-10-19T14:31:15;15.70;99.90
8595;DHT22;4335;48.860;9.198;2023-10-19T14:33:46;15.70;99.90
8595;DHT22;4335;48.860;9.198;2023-10-19T14:36:14;15.70;99.90
8595;DHT22;4335;48.860;9.198;2023-10-19T14:38:46;15.70;99.90
8595;DHT22;4335;48.860;9.198;2023-10-19T14:41:17;15.70;99.90
8595;DHT22;4335;48.860;9.198;2023-10-19T14:43:48;15.60;99.90
8595;DHT22;4335;48.860;9.198;2023-10-19T14:46:18;15.60;99.90
8595;DHT22;4335;48.860;9.198;2023-10-19T14:48:46;15.60;99.90
8595;DHT22;4335;48.860;9.198;2023-10-19T14:51:19;15.60;99.90
8595;DHT22;4335;48.860;9.198;2023-10-19T14:53:46;15.60;99.90
8595;DHT22;4335;48.860;9.198;2023-10-19T14:56:14;15.50;99.90
8595;DHT22;4335;48.860;9.198;2023-10-19T14:58:41;15.50;99.90
8595;DHT22;4335;48.860;9.198;2023-10-19T15:01:08;15.50;99.90
8595;DHT22;4335;48.860;9.198;2023-10-19T15:03:41;15.50;99.90
8595;DHT22;4335;48.860;9.198;2023-10-19T15:06:11;15.60;99.90
8595;DHT22;4335;48.860;9.198;2023-10-19T15:08:48;15.60;99.90
8595;DHT22;4335;48.860;9.198;2023-10-19T15:11:19;15.60;99.90
8595;DHT22;4335;48.860;9.198;2023-10-19T15:13:48;15.60;99.90
8595;DHT22;4335;48.860;9.198;2023-10-19T15:16:19;15.60;99.90
8595;DHT22;4335;48.860;9.198;2023-10-19T15:18:49;15.60;99.90
8595;DHT22;4335;48.860;9.198;2023-10-19T15:21:19;15.60;99.90
8595;DHT22;4335;48.860;9.198;2023-10-19T15:23:55;15.60;99.90
8595;DHT22;4335;48.860;9.198;2023-10-19T15:26:23;15.60;99.90
8595;DHT22;4335;48.860;9.198;2023-10-19T15:28:50;15.70;99.90
8595;DHT22;4335;48.860;9.198;2023-10-19T15:31:18;15.70;99.90
8595;DHT22;4335;48.860;9.198;2023-10-19T15:33:56;15.60;99.90
8595;DHT22;4335;48.860;9.198;2023-10-19T15:36:23;15.60;99.90
8595;DHT22;4335;48.860;9.198;2023-10-19T15:38:51;15.60;99.90
8595;DHT22;4335;48.860;9.198;2023-10-19T15:41:19;15.60;99.90
8595;DHT22;4335;48.860;9.198;2023-10-19T15:43:50;15.50;99.90
8595;DHT22;4335;48.860;9.198;2023-10-19T15:46:20;15.50;99.90
8595;DHT22;4335;48.860;9.198;2023-10-19T15:48:49;15.50;99.90
8595;DHT22;4335;48.860;9.198;2023-10-19T15:51:17;15.50;99.90
8595;DHT22;4335;48.860;9.198;2023-10-19T15:53:53;15.40;99.90
8595;DHT22;4335;48.860;9.198;2023-10-19T15:56:22;15.40;99.90
8595;DHT22;4335;48.860;9.198;2023-10-19T15:58:52;15.40;99.90
8595;DHT22;4335;48.860;9.198;2023-10-19T16:01:22;15.40;99.90
8595;DHT22;4335;48.860;9.198;2023-10-19T16:03:53;15.30;99.90
8595;DHT22;4335;48.860;9.198;2023-10-19T16:06:20;15.30;99.90
8595;DHT22;4335;48.860;9.198;2023-10-19T16:08:48;15.30;99.90
8595;DHT22;4335;48.860;9.198;2023-10-19T16:11:17;15.20;99.90
8595;DHT22;4335;48.860;9.198;2023-10-19T16:13:51;15.20;99.90
8595;DHT22;4335;48.860;9.198;2023-10-19T16:16:22;15.20;99.90
8595;DHT22;4335;48.860;9.198;2023-10-19T16:18:56;15.20;99.90
8595;DHT22;4335;48.860;9.198;2023-10-19T16:21:41;15.20;99.90
8595;DHT22;4335;48.860;9.198;2023-10-19T16:24:09;15.10;99.90
8595;DHT22;4335;48.860;9.198;2023-10-19T16:26:37;15.10;99.90
8595;DHT22;4335;48.860;9.198;2023-10-19T16:29:09;15.10;99.90